Airfield :







YOU CAN JOIN US ON...

 
LOGIN :

Register | Disclaimer

   EN    FR    IT 

 









Legend :    VFR   Marginal VFR   IFR   Intensive IFR   Very Intensive IFR
Visi :
Ceiling :
>= 8 km
>= 3000ft
5 to 8 km
1000 to 3000 ft
1500m to 5 km
500 to 1000 ft
800 to 1500m
200 to 500 ft
< 800m
< 200 ft
Symbols :   Thunderstorms  Fog  Heavy snow  Heavy precipitations  Wind > 20 kt







- Airport Elevation : 534 ft
- IATA code : PQI


KPQI - Northern Maine Regional Arpt At Presque Isle

CURRENT METAR :
  • 261056Z AUTO 16010G16KT 10SM OVC012 10/09 A2980 RMK AO2 RAE55 SLP116 P0001 T01000094

EXPIRED METARs :
  • 261042Z AUTO 15009KT 10SM -RA BKN012 OVC017 10/09 A2980 RMK AO2 P0000
  • 261005Z AUTO 15009KT 10SM -RA SCT010 OVC016 10/09 A2981 RMK AO2 P0000
  • 260956Z AUTO 15008KT 10SM -RA BKN012 OVC016 10/09 A2982 RMK AO2 SLP123 P0006 T01000089
  • 260908Z AUTO 14008KT 7SM RA BKN014 OVC029 10/09 A2982 RMK AO2 P0002
  • 260856Z AUTO 15008KT 6SM -RA BR FEW012 BKN017 OVC039 10/09 A2983 RMK AO2 SLP126 P0006 60009 T01000089 58023

TAF KPQI
Valid from the 26 at 06:00 until the 27 at 06:00 UTC


260537Z 2606/2706 19009KT P6SM VCSH OVC050
FM260800 17007KT 6SM -RA OVC030
FM261000 17007KT 5SM -RA OVC010
FM261500 17009KT P6SM VCSH BKN020
FM270200 31005KT P6SM SCT025
KZBW FIR / North America



MET'MAP, your aeronautical weather chart ! - Copyright ORBIFLY December 2007 - Disclaimer

ORBIFLY MET'MAP TEAM :

Programming & Development : Alexandra Zaïnal
Concept & Development : Baudouin d'Aumeries
Co-Development & Prog : Marc-Olivier Méhu
Technical & hardware support : Manuel Goepfert

Contact : metmap@orbifly.com




SOURCES & CREDITS :

   NOAA